Time;durP1;ratioP1;P1;durP2;ratioP2;P2;SDS_P1;SDS_P2;PMS_P1;PMS_P2;Temp;Humidity;BMP_temperature;BMP_pressure;BME280_temperature;BME280_humidity;BME280_pressure;Samples;Min_cycle;Max_cycle;Signal;HPM_P1;HPM_P2
2022/07/13 00:01:39;;;;;;;4.30;0.70;;;;;;;;;;5062663;28;20033;-76
2022/07/13 00:04:05;;;;;;;3.33;0.50;;;;;;;;;;5061185;28;20454;-75
2022/07/13 00:06:31;;;;;;;2.58;0.55;;;;;;;;;;5061139;28;20024;-76
2022/07/13 00:08:57;;;;;;;1.63;0.50;;;;;;;;;;5057707;28;20076;-75
2022/07/13 00:11:24;;;;;;;1.95;0.70;;;;;;;;;;5056496;28;20060;-76
2022/07/13 00:13:50;;;;;;;1.13;0.60;;;;;;;;;;5059101;28;20079;-76
2022/07/13 00:16:16;;;;;;;2.58;0.63;;;;;;;;;;5062259;28;20083;-76
2022/07/13 00:18:42;;;;;;;1.75;0.60;;;;;;;;;;5065148;28;20975;-76
2022/07/13 00:21:08;;;;;;;3.63;0.70;;;;;;;;;;5063423;28;20024;-76
2022/07/13 00:23:34;;;;;;;2.95;0.70;;;;;;;;;;5064134;28;20040;-76
2022/07/13 00:26:00;;;;;;;3.70;0.98;;;;;;;;;;5060594;28;20028;-76
2022/07/13 00:28:26;;;;;;;3.55;0.82;;;;;;;;;;5060143;28;20629;-76
2022/07/13 00:30:52;;;;;;;3.92;1.00;;;;;;;;;;5065181;28;20679;-76
2022/07/13 00:33:18;;;;;;;1.88;0.70;;;;;;;;;;5059205;28;20040;-75
2022/07/13 00:35:44;;;;;;;5.05;0.98;;;;;;;;;;5063185;28;20056;-76
2022/07/13 00:38:10;;;;;;;4.07;1.17;;;;;;;;;;5061116;28;20705;-76
2022/07/13 00:40:38;;;;;;;9.40;1.40;;;;;;;;;;5061238;28;20435;-76
2022/07/13 00:43:04;;;;;;;6.47;1.40;;;;;;;;;;5054825;28;20110;-76
2022/07/13 00:45:30;;;;;;;5.93;1.52;;;;;;;;;;5059486;28;20103;-75
2022/07/13 00:47:57;;;;;;;7.07;1.92;;;;;;;;;;5064032;28;20044;-76
2022/07/13 00:50:24;;;;;;;7.38;2.58;;;;;;;;;;5056150;28;20072;-76
2022/07/13 00:52:50;;;;;;;7.82;2.35;;;;;;;;;;5055762;28;20495;-76
2022/07/13 00:55:16;;;;;;;5.95;2.03;;;;;;;;;;5057305;28;20040;-76
2022/07/13 00:57:42;;;;;;;7.22;2.35;;;;;;;;;;5057830;28;20036;-75
2022/07/13 01:00:10;;;;;;;8.88;1.85;;;;;;;;;;5057133;28;20029;-75
2022/07/13 01:02:40;;;;;;;5.22;1.95;;;;;;;;;;5059392;28;20098;-75
2022/07/13 01:05:06;;;;;;;7.22;1.80;;;;;;;;;;5064132;28;20028;-76
2022/07/13 01:07:33;;;;;;;6.88;1.40;;;;;;;;;;5066927;28;20045;-75
2022/07/13 01:10:00;;;;;;;4.88;1.17;;;;;;;;;;5068294;28;20027;-76
2022/07/13 01:12:30;;;;;;;4.32;1.20;;;;;;;;;;5063249;28;20040;-75
2022/07/13 01:14:59;;;;;;;3.50;1.10;;;;;;;;;;5063610;28;20028;-76
2022/07/13 01:17:29;;;;;;;4.43;0.93;;;;;;;;;;5063721;28;20379;-76
2022/07/13 01:19:55;;;;;;;3.42;0.82;;;;;;;;;;5041235;28;20128;-75
2022/07/13 01:22:22;;;;;;;4.43;0.90;;;;;;;;;;5061429;28;20040;-75
2022/07/13 01:24:49;;;;;;;2.78;0.70;;;;;;;;;;5067144;28;20524;-75
2022/07/13 01:27:15;;;;;;;2.03;0.57;;;;;;;;;;5061081;28;20456;-75
2022/07/13 01:29:41;;;;;;;4.22;0.50;;;;;;;;;;5065586;28;20150;-76
2022/07/13 01:32:07;;;;;;;1.95;0.60;;;;;;;;;;5065865;28;20131;-76
2022/07/13 01:34:33;;;;;;;2.28;0.40;;;;;;;;;;5064523;28;20033;-75
2022/07/13 01:37:00;;;;;;;3.33;0.52;;;;;;;;;;5058499;28;20057;-75
2022/07/13 01:39:26;;;;;;;1.20;0.50;;;;;;;;;;5062496;28;20050;-75
2022/07/13 01:41:52;;;;;;;4.43;0.60;;;;;;;;;;5067267;28;20024;-75
2022/07/13 01:44:18;;;;;;;2.13;0.50;;;;;;;;;;5063000;28;20029;-75
2022/07/13 01:46:44;;;;;;;1.10;0.40;;;;;;;;;;5065265;28;20419;-75
2022/07/13 01:49:10;;;;;;;1.10;0.40;;;;;;;;;;5063770;28;20406;-75
2022/07/13 01:51:36;;;;;;;2.65;0.90;;;;;;;;;;5063957;28;20049;-75
2022/07/13 01:54:02;;;;;;;2.50;0.65;;;;;;;;;;5063416;28;20040;-76
2022/07/13 01:56:28;;;;;;;3.78;0.80;;;;;;;;;;5060984;28;20044;-75
2022/07/13 01:58:54;;;;;;;2.25;0.77;;;;;;;;;;5061913;28;20029;-75
2022/07/13 02:01:20;;;;;;;4.30;1.50;;;;;;;;;;5062081;28;20116;-75
2022/07/13 02:03:47;;;;;;;3.95;1.00;;;;;;;;;;5061935;28;20068;-75
2022/07/13 02:06:13;;;;;;;1.20;0.52;;;;;;;;;;5061946;28;20105;-75
2022/07/13 02:08:39;;;;;;;4.90;0.60;;;;;;;;;;5065434;28;20872;-75
2022/07/13 02:11:05;;;;;;;2.60;0.73;;;;;;;;;;5067652;28;20036;-75
2022/07/13 02:13:31;;;;;;;1.20;0.55;;;;;;;;;;5060831;28;20028;-75
2022/07/13 02:15:57;;;;;;;3.60;0.93;;;;;;;;;;5064889;28;20086;-75
2022/07/13 02:18:24;;;;;;;3.75;0.85;;;;;;;;;;5064457;28;20041;-75
2022/07/13 02:20:50;;;;;;;3.65;0.80;;;;;;;;;;5065593;28;20056;-75
2022/07/13 02:23:16;;;;;;;3.08;0.73;;;;;;;;;;5042511;28;20079;-75
2022/07/13 02:25:42;;;;;;;4.15;1.13;;;;;;;;;;5065835;28;20120;-75
2022/07/13 02:28:08;;;;;;;3.35;1.00;;;;;;;;;;5062823;28;20107;-75
2022/07/13 02:30:35;;;;;;;4.28;1.10;;;;;;;;;;5058860;28;20044;-75
2022/07/13 02:33:01;;;;;;;3.40;1.10;;;;;;;;;;5062269;28;20467;-75
2022/07/13 02:35:27;;;;;;;5.30;1.05;;;;;;;;;;5056864;28;20059;-75
2022/07/13 02:37:53;;;;;;;4.88;1.40;;;;;;;;;;5064226;28;20048;-75
2022/07/13 02:40:19;;;;;;;6.32;1.30;;;;;;;;;;5043824;28;20039;-75
2022/07/13 02:42:45;;;;;;;3.60;1.35;;;;;;;;;;5061937;28;20032;-75
2022/07/13 02:45:11;;;;;;;4.88;1.33;;;;;;;;;;5064137;28;20777;-75
2022/07/13 02:47:37;;;;;;;5.65;1.10;;;;;;;;;;5053620;28;20044;-75
2022/07/13 02:50:04;;;;;;;4.78;1.23;;;;;;;;;;5063259;28;20033;-75
2022/07/13 02:52:30;;;;;;;6.07;1.27;;;;;;;;;;5063389;28;20772;-75
2022/07/13 02:54:56;;;;;;;6.72;1.35;;;;;;;;;;5063388;28;20052;-75
2022/07/13 02:57:22;;;;;;;4.68;1.00;;;;;;;;;;5064035;28;20038;-75
2022/07/13 02:59:48;;;;;;;4.43;1.02;;;;;;;;;;5059954;28;20739;-75
2022/07/13 03:02:14;;;;;;;3.33;1.00;;;;;;;;;;5056164;28;20800;-75
2022/07/13 03:04:40;;;;;;;5.47;1.50;;;;;;;;;;5058397;28;20069;-75
2022/07/13 03:07:06;;;;;;;5.97;1.08;;;;;;;;;;5064427;28;20514;-75
2022/07/13 03:09:32;;;;;;;3.67;0.90;;;;;;;;;;5065576;28;20833;-75
2022/07/13 03:11:58;;;;;;;3.38;1.08;;;;;;;;;;5061654;28;20044;-75
2022/07/13 03:14:24;;;;;;;4.35;1.10;;;;;;;;;;5036239;28;20037;-75
2022/07/13 03:16:50;;;;;;;3.33;0.98;;;;;;;;;;5065839;28;20045;-75
2022/07/13 03:19:16;;;;;;;6.30;1.25;;;;;;;;;;5059433;28;20075;-75
2022/07/13 03:21:42;;;;;;;5.15;0.93;;;;;;;;;;5057723;28;20037;-75
2022/07/13 03:24:08;;;;;;;4.13;1.13;;;;;;;;;;5064671;28;20055;-75
2022/07/13 03:26:34;;;;;;;7.75;1.20;;;;;;;;;;5062832;28;20036;-75
2022/07/13 03:29:00;;;;;;;8.05;1.88;;;;;;;;;;5063256;28;20050;-75
2022/07/13 03:31:26;;;;;;;5.63;1.42;;;;;;;;;;5064732;28;20043;-75
2022/07/13 03:33:54;;;;;;;8.48;2.03;;;;;;;;;;5062854;28;20040;-75
2022/07/13 03:36:20;;;;;;;9.38;1.63;;;;;;;;;;5061899;28;20666;-75
2022/07/13 03:38:46;;;;;;;9.18;2.10;;;;;;;;;;5062269;28;20119;-75
2022/07/13 03:41:12;;;;;;;8.05;2.05;;;;;;;;;;5059670;28;20043;-75
2022/07/13 03:43:38;;;;;;;7.10;1.98;;;;;;;;;;5059705;28;20024;-75
2022/07/13 03:46:04;;;;;;;6.13;2.05;;;;;;;;;;5058131;28;20040;-75
2022/07/13 03:48:30;;;;;;;4.50;1.85;;;;;;;;;;5060877;28;20041;-75
2022/07/13 03:50:56;;;;;;;8.02;1.80;;;;;;;;;;5063175;28;20446;-75
2022/07/13 03:53:22;;;;;;;15.55;2.00;;;;;;;;;;5062558;28;20029;-75
2022/07/13 03:55:48;;;;;;;10.63;2.85;;;;;;;;;;5065458;28;20037;-75
2022/07/13 03:58:14;;;;;;;9.85;1.88;;;;;;;;;;5054064;28;20032;-75
2022/07/13 04:00:40;;;;;;;10.05;2.10;;;;;;;;;;5061554;28;20085;-76
2022/07/13 04:03:06;;;;;;;11.25;1.35;;;;;;;;;;5055896;28;20033;-75
2022/07/13 04:05:32;;;;;;;6.38;1.20;;;;;;;;;;5060357;28;20075;-75
2022/07/13 04:07:58;;;;;;;12.18;1.50;;;;;;;;;;5062413;28;20032;-75
2022/07/13 04:10:24;;;;;;;12.85;2.10;;;;;;;;;;5057766;28;20041;-75
2022/07/13 04:12:50;;;;;;;9.95;1.58;;;;;;;;;;5063987;28;20048;-75
2022/07/13 04:15:16;;;;;;;9.35;2.35;;;;;;;;;;5062103;28;20071;-75
2022/07/13 04:17:43;;;;;;;14.80;2.50;;;;;;;;;;5063081;28;20112;-75
2022/07/13 04:20:10;;;;;;;12.95;1.95;;;;;;;;;;5058245;28;20462;-75
2022/07/13 04:22:36;;;;;;;19.05;3.30;;;;;;;;;;5058750;28;20097;-75
2022/07/13 04:25:05;;;;;;;13.18;2.85;;;;;;;;;;5055079;28;20029;-75
2022/07/13 04:27:31;;;;;;;8.32;1.83;;;;;;;;;;5061948;28;20029;-75
2022/07/13 04:29:57;;;;;;;6.63;1.33;;;;;;;;;;5059995;28;20075;-75
2022/07/13 04:32:23;;;;;;;8.25;1.40;;;;;;;;;;5060467;28;20659;-75
2022/07/13 04:34:50;;;;;;;13.65;1.45;;;;;;;;;;5062139;28;20071;-75
2022/07/13 04:37:16;;;;;;;8.13;1.50;;;;;;;;;;5059376;28;20155;-75
2022/07/13 04:39:42;;;;;;;5.30;1.15;;;;;;;;;;5061049;28;20206;-74
2022/07/13 04:42:08;;;;;;;4.45;1.10;;;;;;;;;;5068786;28;20108;-75
2022/07/13 04:44:34;;;;;;;8.15;1.10;;;;;;;;;;5069758;28;20043;-75
2022/07/13 04:47:00;;;;;;;4.78;1.10;;;;;;;;;;5068887;28;20025;-75
2022/07/13 04:49:26;;;;;;;8.38;1.80;;;;;;;;;;5061755;28;20039;-76
2022/07/13 04:51:52;;;;;;;10.10;2.30;;;;;;;;;;5067721;28;20808;-75
2022/07/13 04:54:19;;;;;;;8.07;2.10;;;;;;;;;;5069069;28;20032;-75
2022/07/13 04:56:45;;;;;;;11.43;2.47;;;;;;;;;;5072501;28;20483;-75
2022/07/13 04:59:12;;;;;;;10.82;2.40;;;;;;;;;;5060581;28;20032;-75
2022/07/13 05:01:38;;;;;;;10.85;2.42;;;;;;;;;;5070543;28;20040;-75
2022/07/13 05:04:04;;;;;;;12.88;3.28;;;;;;;;;;5067066;28;20039;-75
2022/07/13 05:06:30;;;;;;;11.80;2.70;;;;;;;;;;5069564;28;20503;-75
2022/07/13 05:08:56;;;;;;;10.43;2.40;;;;;;;;;;5069272;28;20071;-75
2022/07/13 05:11:22;;;;;;;11.20;2.92;;;;;;;;;;5066360;28;20068;-75
2022/07/13 05:13:49;;;;;;;6.93;1.92;;;;;;;;;;5067512;28;20041;-75
2022/07/13 05:16:15;;;;;;;14.15;2.83;;;;;;;;;;5067463;28;20037;-75
2022/07/13 05:18:41;;;;;;;8.63;1.80;;;;;;;;;;5064792;28;20028;-75
2022/07/13 05:21:07;;;;;;;10.30;1.88;;;;;;;;;;5066730;28;20028;-75
2022/07/13 05:23:34;;;;;;;9.60;2.05;;;;;;;;;;5074438;28;20028;-75
2022/07/13 05:26:01;;;;;;;7.88;1.80;;;;;;;;;;5066817;28;20024;-75
2022/07/13 05:28:27;;;;;;;8.60;1.60;;;;;;;;;;5068318;28;20060;-75
2022/07/13 05:30:53;;;;;;;13.45;2.47;;;;;;;;;;5061959;28;20036;-75
2022/07/13 05:33:20;;;;;;;11.27;2.65;;;;;;;;;;5064733;28;20560;-75
2022/07/13 05:35:46;;;;;;;9.98;2.10;;;;;;;;;;5070298;28;20116;-75
2022/07/13 05:38:13;;;;;;;7.38;2.15;;;;;;;;;;5070804;28;20131;-75
2022/07/13 05:40:39;;;;;;;9.25;2.00;;;;;;;;;;5061035;28;20041;-75
2022/07/13 05:43:05;;;;;;;9.88;2.15;;;;;;;;;;5070391;28;20035;-75
2022/07/13 05:45:31;;;;;;;11.82;2.40;;;;;;;;;;5060430;28;20029;-75
2022/07/13 05:47:58;;;;;;;11.50;2.38;;;;;;;;;;5069536;28;20103;-75
2022/07/13 05:50:24;;;;;;;7.55;2.17;;;;;;;;;;5064780;28;20110;-75
2022/07/13 05:52:50;;;;;;;6.47;2.13;;;;;;;;;;5060346;28;20375;-75
2022/07/13 05:55:16;;;;;;;7.45;2.03;;;;;;;;;;5062456;28;20035;-75
2022/07/13 05:57:44;;;;;;;8.27;2.13;;;;;;;;;;5058836;28;20032;-75
2022/07/13 06:00:11;;;;;;;8.15;2.00;;;;;;;;;;5061117;28;20048;-75
2022/07/13 06:02:37;;;;;;;7.90;2.15;;;;;;;;;;5061166;28;20777;-76
2022/07/13 06:05:03;;;;;;;10.93;2.00;;;;;;;;;;5057585;28;20107;-75
2022/07/13 06:07:29;;;;;;;7.22;1.77;;;;;;;;;;5058949;28;20052;-75
2022/07/13 06:09:58;;;;;;;6.72;1.60;;;;;;;;;;5060000;28;20079;-75
2022/07/13 06:12:25;;;;;;;6.65;1.83;;;;;;;;;;5058521;28;20028;-75
2022/07/13 06:14:52;;;;;;;5.82;1.70;;;;;;;;;;5065036;28;20045;-75
2022/07/13 06:17:19;;;;;;;12.90;2.20;;;;;;;;;;5057450;28;20678;-75
2022/07/13 06:19:45;;;;;;;9.73;1.95;;;;;;;;;;5061591;28;20040;-75
2022/07/13 06:22:11;;;;;;;9.25;1.83;;;;;;;;;;5059687;28;20029;-75
2022/07/13 06:24:37;;;;;;;9.88;1.50;;;;;;;;;;5059706;28;20189;-75
2022/07/13 06:27:03;;;;;;;4.07;1.15;;;;;;;;;;5065651;28;20021;-75
2022/07/13 06:29:29;;;;;;;4.57;1.35;;;;;;;;;;5060372;28;20036;-76
2022/07/13 06:31:55;;;;;;;10.55;1.90;;;;;;;;;;5064917;28;20671;-75
2022/07/13 06:34:21;;;;;;;6.57;1.02;;;;;;;;;;5063012;28;20041;-76
2022/07/13 06:36:47;;;;;;;5.57;1.33;;;;;;;;;;5062679;28;20118;-75
2022/07/13 06:39:13;;;;;;;5.43;1.35;;;;;;;;;;5057510;28;20137;-76
2022/07/13 06:41:39;;;;;;;7.18;1.27;;;;;;;;;;5060389;28;20775;-75
2022/07/13 06:44:06;;;;;;;7.15;1.30;;;;;;;;;;5071349;28;20078;-76
2022/07/13 06:46:32;;;;;;;6.22;1.25;;;;;;;;;;5066832;28;20734;-75
2022/07/13 06:48:58;;;;;;;5.20;1.10;;;;;;;;;;5059782;28;20434;-75
2022/07/13 06:51:24;;;;;;;5.30;1.20;;;;;;;;;;5061421;28;20441;-76
2022/07/13 06:53:50;;;;;;;8.13;1.55;;;;;;;;;;5060588;28;20028;-76
2022/07/13 06:56:16;;;;;;;9.10;1.20;;;;;;;;;;5060285;28;20047;-76
2022/07/13 06:58:42;;;;;;;5.18;0.93;;;;;;;;;;5058402;28;20040;-76
2022/07/13 07:01:09;;;;;;;3.38;0.90;;;;;;;;;;5059569;28;20031;-76
2022/07/13 07:03:35;;;;;;;8.60;0.70;;;;;;;;;;5059986;28;20079;-75
2022/07/13 07:06:01;;;;;;;7.88;1.13;;;;;;;;;;5061618;28;20032;-75
2022/07/13 07:08:27;;;;;;;5.32;1.02;;;;;;;;;;5054392;28;20813;-76
2022/07/13 07:10:53;;;;;;;2.38;0.95;;;;;;;;;;5062718;28;20037;-75
2022/07/13 07:13:19;;;;;;;5.47;1.23;;;;;;;;;;5056172;28;20081;-75
2022/07/13 07:15:45;;;;;;;3.83;1.15;;;;;;;;;;5065345;28;20037;-76
2022/07/13 07:18:12;;;;;;;4.13;1.20;;;;;;;;;;5061990;28;20036;-75
2022/07/13 07:20:39;;;;;;;4.97;1.30;;;;;;;;;;5060299;28;20502;-75
2022/07/13 07:23:05;;;;;;;7.97;1.05;;;;;;;;;;5062600;28;20472;-76
2022/07/13 07:25:31;;;;;;;9.23;1.95;;;;;;;;;;5055997;28;20036;-76
2022/07/13 07:27:57;;;;;;;10.57;1.65;;;;;;;;;;5059434;28;20128;-76
2022/07/13 07:30:23;;;;;;;6.93;1.50;;;;;;;;;;5058219;28;20032;-76
2022/07/13 07:32:49;;;;;;;8.15;0.95;;;;;;;;;;5056585;28;20581;-75
2022/07/13 07:35:15;;;;;;;7.25;1.17;;;;;;;;;;5059603;28;20137;-76
2022/07/13 07:37:41;;;;;;;7.20;1.55;;;;;;;;;;5060483;28;20052;-76
2022/07/13 07:40:08;;;;;;;6.45;1.30;;;;;;;;;;5057593;28;20029;-76
2022/07/13 07:42:34;;;;;;;5.70;0.98;;;;;;;;;;5061311;28;20052;-76
2022/07/13 07:45:00;;;;;;;13.27;1.20;;;;;;;;;;5060215;28;20025;-76
2022/07/13 07:47:26;;;;;;;7.70;1.25;;;;;;;;;;5061274;28;20043;-76
2022/07/13 07:49:53;;;;;;;5.72;1.10;;;;;;;;;;5060420;28;20033;-75
2022/07/13 07:52:19;;;;;;;5.38;1.08;;;;;;;;;;5061534;28;20403;-76
2022/07/13 07:54:46;;;;;;;4.65;0.80;;;;;;;;;;5059950;28;20032;-76
2022/07/13 07:57:12;;;;;;;4.25;0.90;;;;;;;;;;5059349;28;20043;-76
2022/07/13 07:59:38;;;;;;;4.93;0.90;;;;;;;;;;5059150;28;20028;-75
2022/07/13 08:02:04;;;;;;;3.20;0.98;;;;;;;;;;5057391;28;20033;-76
2022/07/13 08:04:30;;;;;;;8.38;1.40;;;;;;;;;;5060541;28;20029;-76
2022/07/13 08:06:56;;;;;;;6.00;1.23;;;;;;;;;;5059498;28;20039;-76
2022/07/13 08:09:22;;;;;;;2.53;0.90;;;;;;;;;;5064058;28;20863;-76
2022/07/13 08:11:48;;;;;;;5.00;1.00;;;;;;;;;;5057873;28;20040;-76
2022/07/13 08:14:14;;;;;;;3.10;0.93;;;;;;;;;;5062182;28;20070;-76
2022/07/13 08:16:40;;;;;;;3.67;1.00;;;;;;;;;;5057960;28;20052;-76
2022/07/13 08:19:06;;;;;;;3.47;1.00;;;;;;;;;;5058898;28;20024;-76
2022/07/13 08:21:34;;;;;;;3.55;0.80;;;;;;;;;;5052918;28;20029;-76
2022/07/13 08:24:00;;;;;;;5.47;1.40;;;;;;;;;;5061685;28;20405;-75
2022/07/13 08:26:29;;;;;;;4.25;1.23;;;;;;;;;;5057897;28;20032;-76
2022/07/13 08:28:56;;;;;;;6.28;1.60;;;;;;;;;;5061100;28;20041;-76
2022/07/13 08:31:22;;;;;;;6.93;1.35;;;;;;;;;;5061265;28;20035;-76
2022/07/13 08:39:19;;;;;;;5.72;1.50;;;;;;;;;;5058355;28;20043;-75
2022/07/13 08:41:45;;;;;;;8.93;1.10;;;;;;;;;;5057529;28;20037;-75
2022/07/13 08:44:11;;;;;;;6.25;1.10;;;;;;;;;;5060829;28;20671;-75
2022/07/13 08:46:37;;;;;;;5.78;1.00;;;;;;;;;;5056113;28;20841;-75
2022/07/13 08:49:03;;;;;;;7.47;1.00;;;;;;;;;;5057604;28;20025;-75
2022/07/13 08:51:31;;;;;;;4.18;0.90;;;;;;;;;;5060737;28;20036;-75
2022/07/13 08:53:57;;;;;;;4.40;1.20;;;;;;;;;;5058472;28;20063;-75
2022/07/13 08:56:24;;;;;;;9.18;1.27;;;;;;;;;;5060245;28;20071;-76
2022/07/13 08:58:51;;;;;;;8.75;1.33;;;;;;;;;;5058181;28;20033;-76
2022/07/13 09:01:18;;;;;;;10.40;1.00;;;;;;;;;;5057780;28;20078;-76
2022/07/13 09:03:44;;;;;;;3.92;1.10;;;;;;;;;;5058779;28;20021;-75
2022/07/13 09:06:30;;;;;;;2.85;1.10;;;;;;;;;;5059601;28;20033;-75
2022/07/13 09:08:56;;;;;;;6.22;1.05;;;;;;;;;;5059682;28;20714;-75
2022/07/13 09:11:24;;;;;;;2.97;0.65;;;;;;;;;;5056868;28;20041;-75
2022/07/13 09:13:50;;;;;;;2.67;0.80;;;;;;;;;;5057140;28;20086;-76
2022/07/13 09:16:23;;;;;;;4.63;1.00;;;;;;;;;;5054934;28;20044;-76
2022/07/13 09:18:49;;;;;;;4.30;0.90;;;;;;;;;;5057827;28;20036;-75
2022/07/13 09:21:15;;;;;;;3.03;0.70;;;;;;;;;;5060431;28;20028;-75
2022/07/13 09:23:43;;;;;;;5.30;1.00;;;;;;;;;;5060756;28;20024;-75
2022/07/13 09:26:09;;;;;;;10.05;0.90;;;;;;;;;;5055180;28;20029;-75
2022/07/13 09:28:45;;;;;;;5.00;1.10;;;;;;;;;;5058238;28;20124;-76
2022/07/13 09:31:14;;;;;;;5.07;0.98;;;;;;;;;;5064123;28;20050;-76
2022/07/13 09:33:43;;;;;;;6.07;1.10;;;;;;;;;;5062727;28;20059;-76
2022/07/13 09:36:13;;;;;;;4.28;1.10;;;;;;;;;;5060387;28;20083;-75
2022/07/13 09:38:41;;;;;;;7.03;0.90;;;;;;;;;;5059310;28;20106;-76
2022/07/13 09:41:16;;;;;;;5.85;1.08;;;;;;;;;;5060315;28;20029;-75
2022/07/13 09:46:51;;;;;;;3.70;0.90;;;;;;;;;;5062190;28;20039;-76
2022/07/13 09:49:18;;;;;;;6.43;1.15;;;;;;;;;;5063661;28;20100;-76
2022/07/13 09:51:44;;;;;;;4.35;0.80;;;;;;;;;;5061370;28;20047;-75
2022/07/13 09:54:11;;;;;;;4.07;0.93;;;;;;;;;;5062168;28;20114;-75
2022/07/13 09:56:38;;;;;;;2.65;0.70;;;;;;;;;;5063048;28;20071;-76
2022/07/13 09:59:04;;;;;;;2.67;0.88;;;;;;;;;;5061183;28;20036;-75
2022/07/13 10:01:32;;;;;;;8.25;1.20;;;;;;;;;;5058543;28;20036;-76
2022/07/13 10:03:59;;;;;;;3.92;0.80;;;;;;;;;;5062597;28;20510;-75
2022/07/13 10:06:26;;;;;;;6.70;1.02;;;;;;;;;;5060319;28;20358;-75
2022/07/13 10:08:53;;;;;;;4.05;0.73;;;;;;;;;;5060542;28;20107;-76
2022/07/13 10:11:19;;;;;;;4.43;0.93;;;;;;;;;;5065215;28;20031;-76
2022/07/13 10:13:46;;;;;;;2.80;0.70;;;;;;;;;;5061432;28;20036;-76
2022/07/13 10:16:12;;;;;;;4.43;0.70;;;;;;;;;;5064638;28;20147;-76
2022/07/13 10:18:41;;;;;;;5.03;0.70;;;;;;;;;;5066599;28;20127;-75
2022/07/13 10:21:16;;;;;;;5.88;0.75;;;;;;;;;;5064019;28;20479;-76
2022/07/13 10:23:42;;;;;;;2.20;0.70;;;;;;;;;;5061878;28;20029;-75
2022/07/13 10:26:18;;;;;;;3.25;0.65;;;;;;;;;;5062734;28;20036;-75
2022/07/13 10:29:00;;;;;;;3.65;0.60;;;;;;;;;;5056726;28;20874;-76
2022/07/13 10:31:27;;;;;;;2.95;0.60;;;;;;;;;;5060883;28;20629;-76
2022/07/13 10:33:53;;;;;;;3.60;0.75;;;;;;;;;;5065429;28;20370;-76
2022/07/13 10:36:39;;;;;;;3.75;0.50;;;;;;;;;;5063222;28;20059;-76
2022/07/13 10:39:11;;;;;;;3.03;0.80;;;;;;;;;;5063930;28;20024;-76
2022/07/13 10:41:55;;;;;;;4.57;0.90;;;;;;;;;;5065752;28;20139;-75
2022/07/13 10:44:33;;;;;;;6.53;1.00;;;;;;;;;;5057959;28;20029;-76
2022/07/13 10:46:59;;;;;;;5.80;0.80;;;;;;;;;;5062276;28;20125;-76
2022/07/13 10:49:29;;;;;;;5.60;0.80;;;;;;;;;;5062491;28;20810;-76
2022/07/13 10:51:57;;;;;;;3.47;1.13;;;;;;;;;;5064609;28;20048;-75
2022/07/13 10:54:23;;;;;;;3.72;0.77;;;;;;;;;;5060596;28;20368;-75
2022/07/13 10:57:12;;;;;;;1.80;0.63;;;;;;;;;;5059464;28;20803;-76
2022/07/13 10:59:51;;;;;;;3.78;0.95;;;;;;;;;;5060801;28;20035;-76
2022/07/13 11:02:38;;;;;;;3.25;0.95;;;;;;;;;;5057016;28;20045;-75
2022/07/13 11:05:04;;;;;;;4.65;0.80;;;;;;;;;;5060196;28;20020;-75
2022/07/13 11:07:40;;;;;;;4.90;0.98;;;;;;;;;;5062261;28;20038;-76
2022/07/13 11:10:17;;;;;;;2.50;0.70;;;;;;;;;;5058763;28;20035;-76
2022/07/13 11:13:02;;;;;;;2.75;0.70;;;;;;;;;;5063097;28;20491;-76
2022/07/13 11:15:47;;;;;;;4.47;0.65;;;;;;;;;;5056850;28;20043;-75
2022/07/13 11:18:22;;;;;;;4.55;0.70;;;;;;;;;;5061698;28;20135;-76
2022/07/13 11:21:26;;;;;;;3.67;1.00;;;;;;;;;;5062905;28;20031;-75
2022/07/13 11:26:48;;;;;;;7.97;0.80;;;;;;;;;;5059370;28;20078;-75
2022/07/13 11:29:33;;;;;;;6.53;1.02;;;;;;;;;;5064715;28;20042;-75
2022/07/13 11:32:00;;;;;;;5.35;0.80;;;;;;;;;;5061080;28;20032;-76
2022/07/13 11:34:26;;;;;;;2.92;0.70;;;;;;;;;;5059033;28;20036;-76
2022/07/13 11:36:57;;;;;;;10.57;1.13;;;;;;;;;;5054018;28;20396;-76
2022/07/13 11:39:26;;;;;;;3.20;0.65;;;;;;;;;;5060004;28;20024;-76
2022/07/13 11:41:53;;;;;;;3.85;0.80;;;;;;;;;;5060989;28;20035;-75
2022/07/13 11:44:24;;;;;;;2.70;0.70;;;;;;;;;;5062295;28;20816;-75
2022/07/13 11:46:51;;;;;;;5.45;0.73;;;;;;;;;;5058052;28;20024;-75
2022/07/13 11:49:17;;;;;;;4.50;0.80;;;;;;;;;;5057699;28;20043;-75
2022/07/13 11:51:46;;;;;;;6.78;1.20;;;;;;;;;;5056767;28;20032;-76
2022/07/13 11:54:14;;;;;;;2.15;0.77;;;;;;;;;;5058534;28;20036;-76
2022/07/13 11:56:50;;;;;;;3.40;0.50;;;;;;;;;;5059726;28;20935;-76
2022/07/13 11:59:33;;;;;;;4.28;0.50;;;;;;;;;;5064396;28;20158;-76
2022/07/13 12:02:01;;;;;;;4.55;0.68;;;;;;;;;;5060769;28;20036;-76
2022/07/13 12:04:27;;;;;;;2.40;0.60;;;;;;;;;;5059403;28;20801;-76
2022/07/13 12:07:12;;;;;;;3.35;0.60;;;;;;;;;;5058816;28;20033;-76
2022/07/13 12:09:46;;;;;;;3.17;0.82;;;;;;;;;;5058205;28;20059;-76
2022/07/13 12:12:12;;;;;;;6.00;0.60;;;;;;;;;;5060625;28;20037;-76
2022/07/13 12:14:38;;;;;;;3.45;0.70;;;;;;;;;;5062650;28;20052;-76
2022/07/13 12:17:04;;;;;;;9.32;0.70;;;;;;;;;;5059844;28;20032;-76
2022/07/13 12:19:30;;;;;;;1.95;0.77;;;;;;;;;;5056686;28;20036;-76
2022/07/13 12:21:57;;;;;;;4.18;0.73;;;;;;;;;;5062151;28;20035;-76
2022/07/13 12:24:23;;;;;;;7.72;0.85;;;;;;;;;;5063633;28;20420;-76
2022/07/13 12:26:53;;;;;;;7.05;0.80;;;;;;;;;;5062016;28;20036;-76
2022/07/13 12:29:48;;;;;;;10.07;1.05;;;;;;;;;;5059121;28;20553;-76
2022/07/13 12:32:14;;;;;;;5.13;0.70;;;;;;;;;;5035831;28;20834;-75
2022/07/13 12:34:53;;;;;;;3.97;0.77;;;;;;;;;;5060938;28;20542;-75
2022/07/13 12:37:34;;;;;;;3.03;0.70;;;;;;;;;;5057808;28;20055;-76
2022/07/13 12:40:01;;;;;;;4.05;0.88;;;;;;;;;;5055563;28;20033;-76
2022/07/13 12:42:26;;;;;;;3.90;0.80;;;;;;;;;;5058672;28;20104;-76
2022/07/13 12:44:53;;;;;;;5.57;0.90;;;;;;;;;;5056442;28;20105;-76
2022/07/13 12:47:24;;;;;;;3.67;0.75;;;;;;;;;;5060870;28;20047;-76
2022/07/13 12:49:50;;;;;;;5.88;0.95;;;;;;;;;;5059850;28;20033;-75
2022/07/13 12:52:19;;;;;;;7.90;0.90;;;;;;;;;;5061664;28;20035;-76
2022/07/13 12:54:55;;;;;;;4.38;0.70;;;;;;;;;;5052406;28;20480;-76
2022/07/13 12:57:27;;;;;;;6.95;0.80;;;;;;;;;;5058530;28;20028;-76
2022/07/13 13:00:11;;;;;;;3.97;0.90;;;;;;;;;;5057612;28;20090;-76
2022/07/13 13:02:37;;;;;;;6.18;0.77;;;;;;;;;;5057056;28;20025;-76
2022/07/13 13:05:06;;;;;;;3.58;1.02;;;;;;;;;;5066768;28;20060;-76
2022/07/13 13:07:35;;;;;;;6.35;0.75;;;;;;;;;;5062528;28;20024;-76
2022/07/13 13:10:01;;;;;;;3.58;0.80;;;;;;;;;;5062751;28;20035;-76
2022/07/13 13:12:27;;;;;;;2.33;0.70;;;;;;;;;;5065977;28;20365;-76
2022/07/13 13:14:53;;;;;;;3.17;0.80;;;;;;;;;;5062135;28;20036;-76
2022/07/13 13:17:19;;;;;;;6.15;1.20;;;;;;;;;;5061823;28;20040;-76
2022/07/13 13:19:45;;;;;;;4.05;0.60;;;;;;;;;;5060790;28;20036;-76
2022/07/13 13:22:11;;;;;;;15.45;2.13;;;;;;;;;;5064251;28;20373;-76
2022/07/13 13:24:39;;;;;;;2.60;0.80;;;;;;;;;;5057319;28;20037;-76
2022/07/13 13:27:05;;;;;;;2.85;0.73;;;;;;;;;;5063833;28;20033;-76
2022/07/13 13:32:16;;;;;;;1.35;0.55;;;;;;;;;;5058226;28;20059;-76
2022/07/13 13:34:42;;;;;;;5.15;0.70;;;;;;;;;;5057099;28;20032;-76
2022/07/13 13:37:08;;;;;;;3.20;0.63;;;;;;;;;;5061043;28;20086;-76
2022/07/13 13:39:34;;;;;;;3.13;0.85;;;;;;;;;;5061761;28;20137;-76
2022/07/13 13:42:00;;;;;;;2.30;0.98;;;;;;;;;;5063456;28;20472;-76
2022/07/13 13:44:26;;;;;;;5.40;0.70;;;;;;;;;;5064849;28;20033;-76
2022/07/13 13:46:51;;;;;;;2.15;0.70;;;;;;;;;;5063884;28;20028;-76
2022/07/13 13:49:18;;;;;;;7.65;1.17;;;;;;;;;;5061840;28;20384;-76
2022/07/13 13:51:44;;;;;;;6.07;0.70;;;;;;;;;;5064424;28;20783;-76
2022/07/13 13:54:10;;;;;;;5.15;1.10;;;;;;;;;;5062417;28;20032;-76
2022/07/13 13:56:36;;;;;;;6.28;1.00;;;;;;;;;;5060856;28;20040;-76
2022/07/13 13:59:02;;;;;;;3.10;0.80;;;;;;;;;;5058370;28;20135;-76
2022/07/13 14:01:29;;;;;;;7.00;1.23;;;;;;;;;;5060178;28;20068;-76
2022/07/13 14:03:55;;;;;;;6.65;0.98;;;;;;;;;;5064089;28;20028;-76
2022/07/13 14:06:21;;;;;;;3.47;0.70;;;;;;;;;;5061203;28;20036;-76
2022/07/13 14:08:47;;;;;;;6.30;0.90;;;;;;;;;;5060101;28;20037;-76
2022/07/13 14:11:13;;;;;;;3.40;1.00;;;;;;;;;;5060515;28;20032;-76
2022/07/13 14:13:40;;;;;;;4.97;0.70;;;;;;;;;;5060597;28;20036;-75
2022/07/13 14:16:06;;;;;;;3.20;0.70;;;;;;;;;;5059265;28;20028;-76
2022/07/13 14:18:33;;;;;;;4.57;1.08;;;;;;;;;;5057838;28;20040;-76
2022/07/13 14:20:59;;;;;;;5.50;0.65;;;;;;;;;;5063451;28;20044;-75
2022/07/13 14:23:25;;;;;;;3.47;0.85;;;;;;;;;;5058996;28;20029;-76
2022/07/13 14:25:51;;;;;;;3.95;0.60;;;;;;;;;;5059756;28;20025;-76
2022/07/13 14:50:40;;;;;;;3.63;0.70;;;;;;;;;;5048510;28;20457;-76
2022/07/13 14:53:06;;;;;;;4.35;0.70;;;;;;;;;;5041330;28;20040;-75
2022/07/13 14:55:32;;;;;;;2.85;0.88;;;;;;;;;;5045377;28;20041;-76
2022/07/13 14:57:58;;;;;;;4.88;0.75;;;;;;;;;;5040067;28;20033;-76
2022/07/13 15:00:24;;;;;;;3.97;1.20;;;;;;;;;;5046743;28;20032;-76
2022/07/13 15:02:51;;;;;;;3.90;0.73;;;;;;;;;;5041087;28;20033;-75
2022/07/13 15:05:17;;;;;;;2.72;0.80;;;;;;;;;;5042619;28;20021;-75
2022/07/13 15:07:44;;;;;;;3.65;0.60;;;;;;;;;;5040502;28;20041;-76
